To NAV CANADA Home Page Login to a new session Search on AWWS site Feedback and Comments Disclaimer Vers la page française équivalente Tips FAQ What's new on the site To the Forecasts and Observations / NOTAM section To "File a Flight Plan" website Publications and other links Update of the User's profile FIC Telephone Numbers My Weather Data Folder Route Weather Data Regional Weather Data Local Weather Data To the Forecasts and Observations / NOTAM section
Request Generated 02/07/2016 at 12:48:13 UTC . Weather information available at that time is displayed.

METAR/TAF

ARVIAT/NU    

METAR CYEK 071200Z AUTO 10002KT 9SM CLR M32/M35 A3018 RMK SLP222
DENSITY ALT MISG=
METAR CYEK 071100Z AUTO 00000KT 9SM FEW130 SCT150 M31/M34 A3018 RMK
SLP222 DENSITY ALT MISG=
METAR CYEK 071000Z AUTO 00000KT 9SM CLR M32/M34 A3017 RMK SLP221
DENSITY ALT MISG=

TAF CYEK 071138Z 0712/0724 VRB03KT P6SM SCT150
BECMG 0712/0714 18012KT
FM071600 18012KT P6SM SCT030 BKN150
FM072000 18015KT P6SM SCT020 BKN060 TEMPO 0720/0724 5SM -SN
BKN020 OVC060
RMK FCST BASED ON AUTO OBS. NXT FCST BY 071800Z=
Your time UTC time
Weather data provided by Environment Canada and NAV CANADA